createdAt,value
2018-06-09T00:00:26.769Z,22.30
2018-06-09T00:00:58.480Z,22.30
2018-06-09T00:01:30.207Z,22.30
2018-06-09T00:02:01.937Z,22.30
2018-06-09T00:02:33.668Z,22.30
2018-06-09T00:03:05.383Z,22.30
2018-06-09T00:03:37.121Z,22.30
2018-06-09T00:04:08.830Z,22.30
2018-06-09T00:04:40.615Z,22.30
2018-06-09T00:05:12.388Z,22.30
2018-06-09T00:05:44.235Z,22.30
2018-06-09T00:06:16.104Z,22.30
2018-06-09T00:06:47.810Z,22.30
2018-06-09T00:07:19.527Z,22.30
2018-06-09T00:07:51.268Z,22.30
2018-06-09T00:08:22.986Z,22.30
2018-06-09T00:08:54.711Z,22.30
2018-06-09T00:09:26.415Z,22.30
2018-06-09T00:09:58.146Z,22.40
2018-06-09T00:10:29.859Z,22.30
2018-06-09T00:11:01.582Z,22.30
2018-06-09T00:11:33.308Z,22.30
2018-06-09T00:12:05.048Z,22.30
2018-06-09T00:12:36.989Z,22.40
2018-06-09T00:13:08.744Z,22.40
2018-06-09T00:13:40.458Z,22.40
2018-06-09T00:14:12.198Z,22.40
2018-06-09T00:14:43.887Z,22.40
2018-06-09T00:15:15.619Z,22.40
2018-06-09T00:15:47.329Z,22.40
2018-06-09T00:16:19.037Z,22.40
2018-06-09T00:16:50.787Z,22.50
2018-06-09T00:17:22.519Z,22.50
2018-06-09T00:17:54.235Z,22.40
2018-06-09T00:18:25.968Z,22.40
2018-06-09T00:18:57.715Z,22.40
2018-06-09T00:19:29.454Z,22.40
2018-06-09T00:20:01.142Z,22.40
2018-06-09T00:20:32.863Z,22.40
2018-06-09T00:21:04.600Z,22.40
2018-06-09T00:21:36.339Z,22.40
2018-06-09T00:22:08.066Z,22.40
2018-06-09T00:22:39.783Z,22.40
2018-06-09T00:23:11.501Z,22.40
2018-06-09T00:23:43.218Z,22.40
2018-06-09T00:24:14.938Z,22.40
2018-06-09T00:24:46.667Z,22.40
2018-06-09T00:25:18.378Z,22.40
2018-06-09T00:25:50.105Z,22.40
2018-06-09T00:26:21.837Z,22.40
2018-06-09T00:26:53.570Z,22.40
2018-06-09T00:27:25.309Z,22.40
2018-06-09T00:27:57.094Z,22.50
2018-06-09T00:28:28.806Z,22.50
2018-06-09T00:29:00.543Z,22.50
2018-06-09T00:29:32.302Z,22.50
2018-06-09T00:30:04.025Z,22.50
2018-06-09T00:30:35.749Z,22.40
2018-06-09T00:31:07.486Z,22.40
2018-06-09T00:31:39.203Z,22.40
2018-06-09T00:32:10.921Z,22.40
2018-06-09T00:32:42.695Z,22.40
2018-06-09T00:33:14.444Z,22.40
2018-06-09T00:33:46.186Z,22.40
2018-06-09T00:34:17.899Z,22.40
2018-06-09T00:34:49.613Z,22.40
2018-06-09T00:35:21.390Z,22.40
2018-06-09T00:35:53.175Z,22.40
2018-06-09T00:36:24.845Z,22.40
2018-06-09T00:36:56.542Z,22.40
2018-06-09T00:37:28.281Z,22.40
2018-06-09T00:38:00.014Z,22.40
2018-06-09T00:38:31.759Z,22.40
2018-06-09T00:39:03.516Z,22.50
2018-06-09T00:39:35.206Z,22.50
2018-06-09T00:40:06.962Z,22.40
2018-06-09T00:40:38.724Z,22.40
2018-06-09T00:41:10.442Z,22.40
2018-06-09T00:41:42.187Z,22.40
2018-06-09T00:42:13.926Z,22.40
2018-06-09T00:42:45.627Z,22.40
2018-06-09T00:43:17.361Z,22.40
2018-06-09T00:43:49.124Z,22.40
2018-06-09T00:44:20.815Z,22.40
2018-06-09T00:44:52.545Z,22.40
2018-06-09T00:45:24.287Z,22.40
2018-06-09T00:45:55.999Z,22.40
2018-06-09T00:46:27.716Z,22.40
2018-06-09T00:46:59.422Z,22.40
2018-06-09T00:47:31.178Z,22.40
2018-06-09T00:48:02.895Z,22.40
2018-06-09T00:48:34.623Z,22.40
2018-06-09T00:49:06.358Z,22.40
2018-06-09T00:49:38.096Z,22.40
2018-06-09T00:50:09.819Z,22.40
2018-06-09T00:50:41.544Z,22.50
2018-06-09T00:51:13.271Z,22.50
2018-06-09T00:51:44.990Z,22.50
2018-06-09T00:52:16.718Z,22.50
2018-06-09T00:52:48.454Z,22.50
2018-06-09T00:53:20.158Z,22.50
2018-06-09T00:53:51.898Z,22.50
2018-06-09T00:54:23.635Z,22.50
2018-06-09T00:54:55.348Z,22.50
2018-06-09T00:55:27.096Z,22.50
2018-06-09T00:55:58.817Z,22.50
2018-06-09T00:56:30.540Z,22.50
2018-06-09T00:57:02.272Z,22.50
2018-06-09T00:57:34.003Z,22.50
2018-06-09T00:58:05.741Z,22.50
2018-06-09T00:58:37.457Z,22.50
2018-06-09T00:59:09.176Z,22.50
2018-06-09T00:59:40.900Z,22.50
2018-06-09T01:00:12.629Z,22.50
2018-06-09T01:00:44.341Z,22.50
2018-06-09T01:01:16.090Z,22.50
2018-06-09T01:01:47.862Z,22.50
2018-06-09T01:02:19.554Z,22.40
2018-06-09T01:02:51.291Z,22.40
2018-06-09T01:03:23.026Z,22.40
2018-06-09T01:03:54.748Z,22.40
2018-06-09T01:04:26.499Z,22.40
2018-06-09T01:04:58.238Z,22.40
2018-06-09T01:05:29.949Z,22.40
2018-06-09T01:06:01.678Z,22.40
2018-06-09T01:06:33.414Z,22.40
2018-06-09T01:07:05.169Z,22.40
2018-06-09T01:07:36.886Z,22.40
2018-06-09T01:08:08.634Z,22.40
2018-06-09T01:08:40.355Z,22.40
2018-06-09T01:09:12.086Z,22.40
2018-06-09T01:09:43.830Z,22.40
2018-06-09T01:10:15.538Z,22.40
2018-06-09T01:10:47.262Z,22.40
2018-06-09T01:11:18.967Z,22.40
2018-06-09T01:11:50.696Z,22.40
2018-06-09T01:12:22.447Z,22.40
2018-06-09T01:12:54.163Z,22.40
2018-06-09T01:13:25.882Z,22.40
2018-06-09T01:13:57.611Z,22.40
2018-06-09T01:14:29.333Z,22.40
2018-06-09T01:15:01.064Z,22.40
2018-06-09T01:15:32.809Z,22.40
2018-06-09T01:16:04.522Z,22.40
2018-06-09T01:16:36.245Z,22.50
2018-06-09T01:17:07.974Z,22.40
2018-06-09T01:17:39.678Z,22.40
2018-06-09T01:18:11.401Z,22.40
2018-06-09T01:18:43.124Z,22.40
2018-06-09T01:19:14.846Z,22.40
2018-06-09T01:19:46.603Z,22.40
2018-06-09T01:20:18.315Z,22.40
2018-06-09T01:20:50.052Z,22.40
2018-06-09T01:21:21.805Z,22.40
2018-06-09T01:21:53.519Z,22.40
2018-06-09T01:22:25.251Z,22.40
2018-06-09T01:22:57.012Z,22.40
2018-06-09T01:23:28.756Z,22.40
2018-06-09T01:24:00.490Z,22.40
2018-06-09T01:24:32.220Z,22.40
2018-06-09T01:25:03.932Z,22.40
2018-06-09T01:25:35.643Z,22.40
2018-06-09T01:26:07.423Z,22.40
2018-06-09T01:26:39.111Z,22.40
2018-06-09T01:27:10.822Z,22.40
2018-06-09T01:27:42.572Z,22.40
2018-06-09T01:28:14.287Z,22.40
2018-06-09T01:28:46.150Z,22.40
2018-06-09T01:29:17.879Z,22.40
2018-06-09T01:29:49.607Z,22.40
2018-06-09T01:30:21.351Z,22.40
2018-06-09T01:30:53.075Z,22.40
2018-06-09T01:31:24.814Z,22.40
2018-06-09T01:31:56.504Z,22.40
2018-06-09T01:32:28.269Z,22.40
2018-06-09T01:32:59.990Z,22.40
2018-06-09T01:33:31.706Z,22.40
2018-06-09T01:34:03.477Z,22.40
2018-06-09T01:34:35.206Z,22.40
2018-06-09T01:35:06.916Z,22.40
2018-06-09T01:35:38.654Z,22.40
2018-06-09T01:36:10.377Z,22.40
2018-06-09T01:36:42.087Z,22.40
2018-06-09T01:37:13.841Z,22.40
2018-06-09T01:37:45.536Z,22.40
2018-06-09T01:38:17.270Z,22.50
2018-06-09T01:38:49.028Z,22.50
2018-06-09T01:39:20.726Z,22.50
2018-06-09T01:39:52.446Z,22.50
2018-06-09T01:40:24.185Z,22.50
2018-06-09T01:40:55.906Z,22.50
2018-06-09T01:41:27.635Z,22.40
2018-06-09T01:41:59.367Z,22.40
2018-06-09T01:42:31.094Z,22.40
2018-06-09T01:43:02.826Z,22.40
2018-06-09T01:43:34.539Z,22.40
2018-06-09T01:44:06.246Z,22.40
2018-06-09T01:44:37.980Z,22.40
2018-06-09T01:45:09.706Z,22.50
2018-06-09T01:45:41.410Z,22.40
2018-06-09T01:46:13.158Z,22.50
2018-06-09T01:46:44.879Z,22.50
2018-06-09T01:47:16.614Z,22.40
2018-06-09T01:47:48.358Z,22.40
2018-06-09T01:48:20.083Z,22.40
2018-06-09T01:48:51.798Z,22.40
2018-06-09T01:49:23.546Z,22.40
2018-06-09T01:49:55.244Z,22.50
2018-06-09T01:50:26.966Z,22.50
2018-06-09T01:50:58.683Z,22.50
2018-06-09T01:51:30.409Z,22.50
2018-06-09T01:52:02.171Z,22.50
2018-06-09T01:52:33.873Z,22.50
2018-06-09T01:53:05.623Z,22.50
2018-06-09T01:53:37.371Z,22.50
2018-06-09T01:54:09.108Z,22.50
2018-06-09T01:54:40.834Z,22.40
2018-06-09T01:55:12.581Z,22.40
2018-06-09T01:55:44.295Z,22.40
2018-06-09T01:56:16.050Z,22.40
2018-06-09T01:56:47.777Z,22.40
2018-06-09T01:57:19.496Z,22.40
2018-06-09T01:57:51.215Z,22.50
2018-06-09T01:58:22.983Z,22.50
2018-06-09T01:58:54.705Z,22.50
2018-06-09T01:59:26.431Z,22.50
2018-06-09T01:59:58.179Z,22.50
2018-06-09T02:00:29.882Z,22.50
2018-06-09T02:01:01.615Z,22.50
2018-06-09T02:01:33.336Z,22.50
2018-06-09T02:02:05.054Z,22.50
2018-06-09T02:02:36.774Z,22.50
2018-06-09T02:03:08.493Z,22.50
2018-06-09T02:03:40.246Z,22.50
2018-06-09T02:04:11.965Z,22.50
2018-06-09T02:04:43.678Z,22.50
2018-06-09T02:05:15.410Z,22.50
2018-06-09T02:05:47.186Z,22.50
2018-06-09T02:06:18.943Z,22.50
2018-06-09T02:06:50.729Z,22.50
2018-06-09T02:07:22.450Z,22.50
2018-06-09T02:07:54.185Z,22.50
2018-06-09T02:08:25.900Z,22.50
2018-06-09T02:08:57.633Z,22.50
2018-06-09T02:09:29.360Z,22.50
2018-06-09T02:10:01.094Z,22.50
2018-06-09T02:10:32.848Z,22.50
2018-06-09T02:11:04.612Z,22.50
2018-06-09T02:11:36.308Z,22.50
2018-06-09T02:12:08.038Z,22.50
2018-06-09T02:12:39.773Z,22.50
2018-06-09T02:13:11.490Z,22.50
2018-06-09T02:13:43.193Z,22.50
2018-06-09T02:14:14.950Z,22.50
2018-06-09T02:14:46.668Z,22.50
2018-06-09T02:15:18.383Z,22.50
2018-06-09T02:15:50.108Z,22.50
2018-06-09T02:16:21.833Z,22.50
2018-06-09T02:16:53.559Z,22.50
2018-06-09T02:17:25.288Z,22.50
2018-06-09T02:17:57.003Z,22.50
2018-06-09T02:18:28.723Z,22.50
2018-06-09T02:19:00.435Z,22.50
2018-06-09T02:19:32.151Z,22.50
2018-06-09T02:20:03.865Z,22.50
2018-06-09T02:20:35.595Z,22.50
2018-06-09T02:21:07.301Z,22.50
2018-06-09T02:21:39.022Z,22.50
2018-06-09T02:22:10.756Z,22.50
2018-06-09T02:22:42.495Z,22.50
2018-06-09T02:23:14.223Z,22.50
2018-06-09T02:23:45.958Z,22.50
2018-06-09T02:24:17.789Z,22.50
2018-06-09T02:24:49.471Z,22.50
2018-06-09T02:25:21.176Z,22.50
2018-06-09T02:25:52.940Z,22.50
2018-06-09T02:26:24.637Z,22.50
2018-06-09T02:26:56.376Z,22.50
2018-06-09T02:27:28.106Z,22.50
2018-06-09T02:27:59.809Z,22.50
2018-06-09T02:28:31.534Z,22.50
2018-06-09T02:29:03.279Z,22.50
2018-06-09T02:29:34.989Z,22.50
2018-06-09T02:30:06.715Z,22.50
2018-06-09T02:30:38.449Z,22.50
2018-06-09T02:31:10.194Z,22.50
2018-06-09T02:31:41.945Z,22.50
2018-06-09T02:32:13.620Z,22.50
2018-06-09T02:32:45.342Z,22.40
2018-06-09T02:33:17.089Z,22.40
2018-06-09T02:33:48.834Z,22.50
2018-06-09T02:34:20.548Z,22.50
2018-06-09T02:34:52.265Z,22.50
2018-06-09T02:35:24.000Z,22.50
2018-06-09T02:35:55.721Z,22.40
2018-06-09T02:36:27.419Z,22.50
2018-06-09T02:36:59.128Z,22.50
2018-06-09T02:37:30.871Z,22.50
2018-06-09T02:38:02.584Z,22.50
2018-06-09T02:38:34.306Z,22.50
2018-06-09T02:39:06.075Z,22.50
2018-06-09T02:39:37.750Z,22.50
2018-06-09T02:40:09.461Z,22.50
2018-06-09T02:40:41.171Z,22.50
2018-06-09T02:41:12.875Z,22.50
2018-06-09T02:41:44.634Z,22.50
2018-06-09T02:42:16.368Z,22.50
2018-06-09T02:42:48.066Z,22.50
2018-06-09T02:43:19.801Z,22.50
2018-06-09T02:43:51.526Z,22.50
2018-06-09T02:44:23.238Z,22.50
2018-06-09T02:44:55.002Z,22.50
2018-06-09T02:45:26.688Z,22.50
2018-06-09T02:45:58.419Z,22.50
2018-06-09T02:46:30.128Z,22.50
2018-06-09T02:47:01.832Z,22.50
2018-06-09T02:47:33.581Z,22.50
2018-06-09T02:48:05.306Z,22.50
2018-06-09T02:48:37.013Z,22.50
2018-06-09T02:49:08.733Z,22.50
2018-06-09T02:49:40.452Z,22.50
2018-06-09T02:50:12.165Z,22.50
2018-06-09T02:50:43.904Z,22.50
2018-06-09T02:51:15.630Z,22.50
2018-06-09T02:51:47.374Z,22.50
2018-06-09T02:52:19.097Z,22.50
2018-06-09T02:52:50.800Z,22.50
2018-06-09T02:53:22.537Z,22.50
2018-06-09T02:53:54.258Z,22.50
2018-06-09T02:54:25.986Z,22.50
2018-06-09T02:54:57.685Z,22.50
2018-06-09T02:55:29.416Z,22.40
2018-06-09T02:56:01.125Z,22.40
2018-06-09T02:56:32.848Z,22.50
2018-06-09T02:57:04.598Z,22.50
2018-06-09T02:57:36.354Z,22.50
2018-06-09T02:58:08.112Z,22.50
2018-06-09T02:58:39.877Z,22.50
2018-06-09T02:59:11.632Z,22.50
2018-06-09T02:59:43.394Z,22.50
2018-06-09T03:00:15.285Z,22.50
2018-06-09T03:00:47.076Z,22.50
2018-06-09T03:01:18.795Z,22.40
2018-06-09T03:01:50.515Z,22.40
2018-06-09T03:02:22.235Z,22.50
2018-06-09T03:02:53.955Z,22.50
2018-06-09T03:03:25.714Z,22.40
2018-06-09T03:03:57.432Z,22.40
2018-06-09T03:04:29.157Z,22.40
2018-06-09T03:05:00.911Z,22.40
2018-06-09T03:05:32.626Z,22.40
2018-06-09T03:06:04.346Z,22.40
2018-06-09T03:06:36.110Z,22.40
2018-06-09T03:07:07.831Z,22.40
2018-06-09T03:07:39.550Z,22.40
2018-06-09T03:08:11.266Z,22.40
2018-06-09T03:08:42.978Z,22.40
2018-06-09T03:09:14.707Z,22.40
2018-06-09T03:09:46.421Z,22.40
2018-06-09T03:10:18.140Z,22.40
2018-06-09T03:10:49.868Z,22.40
2018-06-09T03:11:21.585Z,22.40
2018-06-09T03:11:53.321Z,22.40
2018-06-09T03:12:25.093Z,22.40
2018-06-09T03:12:56.790Z,22.40
2018-06-09T03:13:28.496Z,22.30
2018-06-09T03:14:00.245Z,22.30
2018-06-09T03:14:31.962Z,22.30
2018-06-09T03:15:03.680Z,22.30
2018-06-09T03:15:35.395Z,22.30
2018-06-09T03:16:07.106Z,22.30
2018-06-09T03:16:38.865Z,22.30
2018-06-09T03:17:10.590Z,22.30
2018-06-09T03:17:42.317Z,22.30
2018-06-09T03:18:14.056Z,22.30
2018-06-09T03:18:45.849Z,22.30
2018-06-09T03:19:17.568Z,22.30
2018-06-09T03:19:49.281Z,22.30
2018-06-09T03:20:20.999Z,22.30
2018-06-09T03:20:52.762Z,22.30
2018-06-09T03:21:24.495Z,22.30
2018-06-09T03:21:56.193Z,22.30
2018-06-09T03:22:27.913Z,22.30
2018-06-09T03:22:59.643Z,22.30
2018-06-09T03:23:31.354Z,22.30
2018-06-09T03:24:03.083Z,22.30
2018-06-09T03:24:34.800Z,22.30
2018-06-09T03:25:06.500Z,22.30
2018-06-09T03:25:38.213Z,22.30
2018-06-09T03:26:09.944Z,22.30
2018-06-09T03:26:41.651Z,22.30
2018-06-09T03:27:13.593Z,22.30
2018-06-09T03:27:45.317Z,22.30
2018-06-09T03:28:17.071Z,22.30
2018-06-09T03:28:48.796Z,22.30
2018-06-09T03:29:20.529Z,22.30
2018-06-09T03:29:52.243Z,22.30
2018-06-09T03:30:23.942Z,22.30
2018-06-09T03:30:55.689Z,22.30
2018-06-09T03:31:27.427Z,22.30
2018-06-09T03:31:59.136Z,22.30
2018-06-09T03:32:30.865Z,22.40
2018-06-09T03:33:02.546Z,22.40
2018-06-09T03:33:34.287Z,22.40
2018-06-09T03:34:05.999Z,22.40
2018-06-09T03:34:37.708Z,22.40
2018-06-09T03:35:09.484Z,22.40
2018-06-09T03:35:41.221Z,22.40
2018-06-09T03:36:12.947Z,22.40
2018-06-09T03:36:44.686Z,22.40
2018-06-09T03:37:16.432Z,22.40
2018-06-09T03:37:48.160Z,22.40
2018-06-09T03:38:19.880Z,22.50
2018-06-09T03:38:51.598Z,22.50
2018-06-09T03:39:23.341Z,22.40
2018-06-09T03:39:55.049Z,22.50
2018-06-09T03:40:26.778Z,22.50
2018-06-09T03:40:58.493Z,22.50
2018-06-09T03:41:30.227Z,22.50
2018-06-09T03:42:01.989Z,22.50
2018-06-09T03:42:33.715Z,22.50
2018-06-09T03:43:05.486Z,22.50
2018-06-09T03:43:37.187Z,22.50
2018-06-09T03:44:08.897Z,22.50
2018-06-09T03:44:40.666Z,22.50
2018-06-09T03:45:12.377Z,22.50
2018-06-09T03:45:44.085Z,22.50
2018-06-09T03:46:15.842Z,22.50
2018-06-09T03:46:47.560Z,22.50
2018-06-09T03:47:19.288Z,22.50
2018-06-09T03:47:51.040Z,22.50
2018-06-09T03:48:22.763Z,22.50
2018-06-09T03:48:54.560Z,22.50
2018-06-09T03:49:26.259Z,22.50
2018-06-09T03:49:57.977Z,22.50
2018-06-09T03:50:29.690Z,22.50
2018-06-09T03:51:01.417Z,22.60
2018-06-09T03:51:33.138Z,22.60
2018-06-09T03:52:04.855Z,22.50
2018-06-09T03:52:36.565Z,22.50
2018-06-09T03:53:08.272Z,22.50
2018-06-09T03:53:39.995Z,22.50
2018-06-09T03:54:11.703Z,22.50
2018-06-09T03:54:43.416Z,22.50
2018-06-09T03:55:15.132Z,22.50
2018-06-09T03:55:46.837Z,22.50
2018-06-09T03:56:18.596Z,22.50
2018-06-09T03:56:50.309Z,22.60
2018-06-09T03:57:22.031Z,22.60
2018-06-09T03:57:53.758Z,22.60
2018-06-09T03:58:25.471Z,22.60
2018-06-09T03:58:57.186Z,22.60
2018-06-09T03:59:28.892Z,22.60
2018-06-09T04:00:00.620Z,22.70
2018-06-09T04:00:32.330Z,22.70
2018-06-09T04:01:04.063Z,22.60
2018-06-09T04:01:35.786Z,22.70
2018-06-09T04:02:07.493Z,22.70
2018-06-09T04:02:39.213Z,22.70
2018-06-09T04:03:10.975Z,22.70
2018-06-09T04:03:42.670Z,22.70
2018-06-09T04:04:14.376Z,22.70
2018-06-09T04:04:46.116Z,22.60
2018-06-09T04:05:17.843Z,22.70
2018-06-09T04:05:49.581Z,22.70
2018-06-09T04:06:21.322Z,22.70
2018-06-09T04:06:53.045Z,22.70
2018-06-09T04:07:24.798Z,22.60
2018-06-09T04:07:56.543Z,22.70
2018-06-09T04:08:28.252Z,22.70
2018-06-09T04:08:59.955Z,22.70
2018-06-09T04:09:31.683Z,22.70
2018-06-09T04:10:03.412Z,22.70
2018-06-09T04:10:35.130Z,22.80
2018-06-09T04:11:06.844Z,22.80
2018-06-09T04:11:38.572Z,22.80
2018-06-09T04:12:10.303Z,22.80
2018-06-09T04:12:42.079Z,22.80
2018-06-09T04:13:13.827Z,22.80
2018-06-09T04:13:45.549Z,22.90
2018-06-09T04:14:17.274Z,22.90
2018-06-09T04:14:48.997Z,22.90
2018-06-09T04:15:20.703Z,22.90
2018-06-09T04:15:52.418Z,22.80
2018-06-09T04:16:24.122Z,22.90
2018-06-09T04:16:55.831Z,22.80
2018-06-09T04:17:27.564Z,22.80
2018-06-09T04:17:59.304Z,22.90
2018-06-09T04:18:31.014Z,22.80
2018-06-09T04:19:02.741Z,22.80
2018-06-09T04:19:34.449Z,22.80
2018-06-09T04:20:06.373Z,22.80
2018-06-09T04:20:38.185Z,22.80
2018-06-09T04:21:09.849Z,22.70
2018-06-09T04:21:41.575Z,22.80
2018-06-09T04:22:13.285Z,22.80
2018-06-09T04:22:44.998Z,22.70
2018-06-09T04:23:16.738Z,22.80
2018-06-09T04:23:48.453Z,22.80
2018-06-09T04:24:20.158Z,22.80
2018-06-09T04:24:51.882Z,22.70
2018-06-09T04:25:23.605Z,22.80
2018-06-09T04:25:55.316Z,22.70
2018-06-09T04:26:27.066Z,22.80
2018-06-09T04:26:58.754Z,22.80
2018-06-09T04:27:30.458Z,22.80
2018-06-09T04:28:02.201Z,22.80
2018-06-09T04:28:33.914Z,22.80
2018-06-09T04:29:05.677Z,22.80
2018-06-09T04:29:37.365Z,22.80
2018-06-09T04:30:09.095Z,22.80
2018-06-09T04:30:40.827Z,22.80
2018-06-09T04:31:12.532Z,22.80
2018-06-09T04:31:44.251Z,22.80
2018-06-09T04:32:15.965Z,22.80
2018-06-09T04:32:47.685Z,22.80
2018-06-09T04:33:19.420Z,22.80
2018-06-09T04:33:51.137Z,22.80
2018-06-09T04:34:22.868Z,22.90
2018-06-09T04:34:54.589Z,22.90
2018-06-09T04:35:26.298Z,22.90
2018-06-09T04:35:58.039Z,22.80
2018-06-09T04:36:29.745Z,22.90
2018-06-09T04:37:01.483Z,22.90
2018-06-09T04:37:33.197Z,22.90
2018-06-09T04:38:04.931Z,22.90
2018-06-09T04:38:36.659Z,22.90
2018-06-09T04:39:08.413Z,22.90
2018-06-09T04:39:40.121Z,22.90
2018-06-09T04:40:11.838Z,22.90
2018-06-09T04:40:43.593Z,22.90
2018-06-09T04:41:15.302Z,22.90
2018-06-09T04:41:47.029Z,22.90
2018-06-09T04:42:18.796Z,22.90
2018-06-09T04:42:50.480Z,22.90
2018-06-09T04:43:22.240Z,22.90
2018-06-09T04:43:53.958Z,22.90
2018-06-09T04:44:25.667Z,22.90
2018-06-09T04:44:57.385Z,22.90
2018-06-09T04:45:29.110Z,22.90
2018-06-09T04:46:00.838Z,22.90
2018-06-09T04:46:32.577Z,22.90
2018-06-09T04:47:04.293Z,22.90
2018-06-09T04:47:36.005Z,22.90
2018-06-09T04:48:07.802Z,22.90
2018-06-09T04:48:39.498Z,22.90
2018-06-09T04:49:11.232Z,22.90
2018-06-09T04:49:42.974Z,22.90
2018-06-09T04:50:14.705Z,22.90
2018-06-09T04:50:46.429Z,22.90
2018-06-09T04:51:18.187Z,22.90
2018-06-09T04:51:49.887Z,22.80
2018-06-09T04:52:21.605Z,22.80
2018-06-09T04:52:53.314Z,22.80
2018-06-09T04:53:25.033Z,22.80
2018-06-09T04:53:56.734Z,22.80
2018-06-09T04:54:28.447Z,22.80
2018-06-09T04:55:00.174Z,22.70
2018-06-09T04:55:31.924Z,22.80
2018-06-09T04:56:03.637Z,22.80
2018-06-09T04:56:35.378Z,22.80
2018-06-09T04:57:07.098Z,22.80
2018-06-09T04:57:38.809Z,22.70
2018-06-09T04:58:10.560Z,22.70
2018-06-09T04:58:42.302Z,22.70
2018-06-09T04:59:14.068Z,22.70
2018-06-09T04:59:45.778Z,22.60
2018-06-09T05:00:17.498Z,22.70
2018-06-09T05:00:49.238Z,22.60
2018-06-09T05:01:20.951Z,22.70
2018-06-09T05:01:52.659Z,22.70
2018-06-09T05:02:24.366Z,22.70
2018-06-09T05:02:56.095Z,22.70
2018-06-09T05:03:27.846Z,22.70
2018-06-09T05:03:59.586Z,22.70
2018-06-09T05:04:31.317Z,22.70
2018-06-09T05:05:03.020Z,22.70
2018-06-09T05:05:34.738Z,22.70
2018-06-09T05:06:06.457Z,22.70
2018-06-09T05:06:38.174Z,22.70
2018-06-09T05:07:09.894Z,22.70
2018-06-09T05:07:41.597Z,22.70
2018-06-09T05:08:13.349Z,22.70
2018-06-09T05:08:45.069Z,22.70
2018-06-09T05:09:16.777Z,22.70
2018-06-09T05:09:48.479Z,22.70
2018-06-09T05:10:20.211Z,22.80
2018-06-09T05:10:51.945Z,22.70
2018-06-09T05:11:23.667Z,22.80
2018-06-09T05:11:55.385Z,22.70
2018-06-09T05:12:27.106Z,22.70
2018-06-09T05:12:58.866Z,22.70
2018-06-09T05:13:30.586Z,22.70
2018-06-09T05:14:02.315Z,22.70
2018-06-09T05:14:34.027Z,22.70
2018-06-09T05:15:05.743Z,22.70
2018-06-09T05:15:37.453Z,22.70
2018-06-09T05:16:09.180Z,22.60
2018-06-09T05:16:40.903Z,22.60
2018-06-09T05:17:12.629Z,22.60
2018-06-09T05:17:44.329Z,22.60
2018-06-09T05:18:16.043Z,22.60
2018-06-09T05:18:47.810Z,22.60
2018-06-09T05:19:19.534Z,22.70
2018-06-09T05:19:51.267Z,22.70
2018-06-09T05:20:23.014Z,22.70
2018-06-09T05:20:54.734Z,22.70
2018-06-09T05:21:26.453Z,22.70
2018-06-09T05:21:58.190Z,22.70
2018-06-09T05:22:29.890Z,22.70
2018-06-09T05:23:01.625Z,22.70
2018-06-09T05:23:33.401Z,22.70
2018-06-09T05:24:05.102Z,22.70
2018-06-09T05:24:36.825Z,22.70
2018-06-09T05:25:08.646Z,22.80
2018-06-09T05:25:40.309Z,22.70
2018-06-09T05:26:12.046Z,22.70
2018-06-09T05:26:43.751Z,22.70
2018-06-09T05:27:15.481Z,22.70
2018-06-09T05:27:47.202Z,22.70
2018-06-09T05:28:18.913Z,22.70
2018-06-09T05:28:50.638Z,22.70
2018-06-09T05:29:22.384Z,22.70
2018-06-09T05:29:54.104Z,22.70
2018-06-09T05:30:25.837Z,22.60
2018-06-09T05:30:57.589Z,22.60
2018-06-09T05:31:29.316Z,22.60
2018-06-09T05:32:01.014Z,22.70
2018-06-09T05:32:32.763Z,22.70
2018-06-09T05:33:04.482Z,22.60
2018-06-09T05:33:36.259Z,22.70
2018-06-09T05:34:07.995Z,22.70
2018-06-09T05:34:39.722Z,22.60
2018-06-09T05:35:11.449Z,22.70
2018-06-09T05:35:43.186Z,22.60
2018-06-09T05:36:14.900Z,22.60
2018-06-09T05:36:46.625Z,22.70
2018-06-09T05:37:18.360Z,22.60
2018-06-09T05:37:50.084Z,22.70
2018-06-09T05:38:21.815Z,22.70
2018-06-09T05:38:53.525Z,22.70
2018-06-09T05:39:25.242Z,22.70
2018-06-09T05:39:56.949Z,22.70
2018-06-09T05:40:28.676Z,22.70
2018-06-09T05:41:00.397Z,22.70
2018-06-09T05:41:32.145Z,22.70
2018-06-09T05:42:04.242Z,22.70
2018-06-09T05:42:35.963Z,22.70
2018-06-09T05:43:07.715Z,22.80
2018-06-09T05:43:39.413Z,22.80
2018-06-09T05:44:11.123Z,22.80
2018-06-09T05:44:42.832Z,22.80
2018-06-09T05:45:14.555Z,22.80
2018-06-09T05:45:46.307Z,22.80
2018-06-09T05:46:18.008Z,22.80
2018-06-09T05:46:49.705Z,22.80
2018-06-09T05:47:21.422Z,22.80
2018-06-09T05:47:53.157Z,22.80
2018-06-09T05:48:24.883Z,22.80
2018-06-09T05:48:56.614Z,22.70
2018-06-09T05:49:28.385Z,22.70
2018-06-09T05:50:00.056Z,22.70
2018-06-09T05:50:31.801Z,22.70
2018-06-09T05:51:03.517Z,22.70
2018-06-09T05:51:35.246Z,22.70
2018-06-09T05:52:06.954Z,22.70
2018-06-09T05:52:38.695Z,22.70
2018-06-09T05:53:10.421Z,22.70
2018-06-09T05:53:42.316Z,22.70
2018-06-09T05:54:14.151Z,22.60
2018-06-09T05:54:46.168Z,22.60
2018-06-09T05:55:18.119Z,22.60
2018-06-09T05:55:49.937Z,22.60
2018-06-09T05:56:21.768Z,22.60
2018-06-09T05:56:53.527Z,22.60
2018-06-09T05:57:25.320Z,22.50
2018-06-09T05:57:57.391Z,22.50
2018-06-09T05:58:29.200Z,22.50
2018-06-09T05:59:00.998Z,22.50
2018-06-09T05:59:33.119Z,22.50
2018-06-09T06:00:05.318Z,22.50
2018-06-09T06:00:37.251Z,22.50
2018-06-09T06:01:09.168Z,22.50
2018-06-09T06:01:40.988Z,22.50
2018-06-09T06:02:12.905Z,22.50
2018-06-09T06:02:44.894Z,22.50
2018-06-09T06:03:16.755Z,22.50
2018-06-09T06:03:48.660Z,22.60
2018-06-09T06:04:20.482Z,22.60
2018-06-09T06:04:52.247Z,22.60
2018-06-09T06:05:24.200Z,22.60
2018-06-09T06:05:55.947Z,22.60
2018-06-09T06:06:27.711Z,22.60
2018-06-09T06:06:59.526Z,22.70
2018-06-09T06:07:31.314Z,22.70
2018-06-09T06:08:03.198Z,22.70
2018-06-09T06:08:35.032Z,22.70
2018-06-09T06:09:06.907Z,22.70
2018-06-09T06:09:38.748Z,22.80
2018-06-09T06:10:10.458Z,22.80
2018-06-09T06:10:42.373Z,22.80
2018-06-09T06:11:14.287Z,22.80
2018-06-09T06:11:46.230Z,22.80
2018-06-09T06:12:18.105Z,22.80
2018-06-09T06:12:49.846Z,22.80
2018-06-09T06:13:21.707Z,22.80
2018-06-09T06:14:31.720Z,22.80
2018-06-09T06:15:03.483Z,22.90
2018-06-09T06:15:35.319Z,22.80
2018-06-09T06:16:07.196Z,22.80
2018-06-09T06:16:39.106Z,22.80
2018-06-09T06:17:11.049Z,22.70
2018-06-09T06:17:42.934Z,22.70
2018-06-09T06:18:14.792Z,22.80
2018-06-09T06:18:46.603Z,22.80
2018-06-09T06:19:18.349Z,22.70
2018-06-09T06:19:50.077Z,22.70
2018-06-09T06:20:21.795Z,22.70
2018-06-09T06:20:53.539Z,22.70
2018-06-09T06:21:25.270Z,22.70
2018-06-09T06:21:57.030Z,22.70
2018-06-09T06:22:28.721Z,22.70
2018-06-09T06:23:00.478Z,22.70
2018-06-09T06:23:32.174Z,22.70
2018-06-09T06:24:03.903Z,22.80
2018-06-09T06:24:35.670Z,22.80
2018-06-09T06:25:07.400Z,22.80
2018-06-09T06:25:39.116Z,22.80
2018-06-09T06:26:10.814Z,22.80
2018-06-09T06:26:42.526Z,22.80
2018-06-09T06:27:14.266Z,22.80
2018-06-09T06:27:45.986Z,22.80
2018-06-09T06:28:17.741Z,22.70
2018-06-09T06:28:49.453Z,22.70
2018-06-09T06:29:21.200Z,22.70
2018-06-09T06:29:52.923Z,22.80
2018-06-09T06:30:24.633Z,22.70
2018-06-09T06:30:56.353Z,22.70
2018-06-09T06:31:28.051Z,22.80
2018-06-09T06:31:59.775Z,22.80
2018-06-09T06:32:31.489Z,22.80
2018-06-09T06:33:03.201Z,22.80
2018-06-09T06:33:34.960Z,22.80
2018-06-09T06:34:06.691Z,22.80
2018-06-09T06:34:38.414Z,22.80
2018-06-09T06:35:10.166Z,22.90
2018-06-09T06:35:41.866Z,22.80
2018-06-09T06:36:13.601Z,22.90
2018-06-09T06:36:45.365Z,22.90
2018-06-09T06:37:17.065Z,22.80
2018-06-09T06:37:48.790Z,22.80
2018-06-09T06:38:20.575Z,22.80
2018-06-09T06:38:52.258Z,22.80
2018-06-09T06:39:23.962Z,22.80
2018-06-09T06:39:55.683Z,22.80
2018-06-09T06:40:27.410Z,22.80
2018-06-09T06:40:59.149Z,22.80
2018-06-09T06:41:30.859Z,22.80
2018-06-09T06:42:02.594Z,22.80
2018-06-09T06:42:34.318Z,22.80
2018-06-09T06:43:06.016Z,22.80
2018-06-09T06:43:37.744Z,22.90
2018-06-09T06:44:09.554Z,22.90
2018-06-09T06:44:41.272Z,22.90
2018-06-09T06:45:12.989Z,22.80
2018-06-09T06:45:44.732Z,22.90
2018-06-09T06:46:16.438Z,22.90
2018-06-09T06:46:48.172Z,22.90
2018-06-09T06:47:19.907Z,22.90
2018-06-09T06:47:51.598Z,22.90
2018-06-09T06:48:23.321Z,23.00
2018-06-09T06:48:55.040Z,23.00
2018-06-09T06:49:26.762Z,23.00